createdAt,value
2019-03-26T00:01:05.622Z,6.80
2019-03-26T00:03:33.789Z,5.87
2019-03-26T00:06:01.760Z,5.60
2019-03-26T00:08:29.730Z,6.15
2019-03-26T00:10:58.515Z,6.12
2019-03-26T00:13:26.798Z,6.20
2019-03-26T00:15:54.459Z,5.90
2019-03-26T00:18:22.426Z,6.50
2019-03-26T00:20:50.388Z,7.22
2019-03-26T00:23:18.362Z,6.92
2019-03-26T00:25:46.240Z,6.87
2019-03-26T00:28:13.992Z,6.62
2019-03-26T00:30:41.750Z,8.90
2019-03-26T00:33:09.514Z,6.92
2019-03-26T00:35:37.590Z,6.87
2019-03-26T00:38:05.457Z,6.47
2019-03-26T00:40:33.216Z,6.00
2019-03-26T00:43:00.990Z,6.90
2019-03-26T00:45:28.849Z,6.80
2019-03-26T00:47:56.612Z,7.47
2019-03-26T00:50:24.377Z,6.87
2019-03-26T00:52:52.854Z,6.60
2019-03-26T00:55:22.878Z,6.60
2019-03-26T00:57:50.333Z,6.95
2019-03-26T01:00:33.924Z,6.40
2019-03-26T01:03:02.036Z,6.70
2019-03-26T01:05:29.903Z,6.35
2019-03-26T01:07:57.878Z,5.95
2019-03-26T01:10:26.153Z,7.05
2019-03-26T01:12:54.323Z,6.15
2019-03-26T01:15:21.671Z,6.03
2019-03-26T01:17:49.441Z,5.42
2019-03-26T01:20:17.003Z,6.45
2019-03-26T01:22:44.763Z,6.03
2019-03-26T01:25:12.932Z,6.58
2019-03-26T01:27:40.696Z,6.42
2019-03-26T01:30:08.465Z,6.55
2019-03-26T01:32:36.224Z,6.17
2019-03-26T01:35:05.363Z,6.35
2019-03-26T01:37:33.091Z,9.70
2019-03-26T01:40:00.841Z,7.30
2019-03-26T01:42:28.712Z,7.62
2019-03-26T01:44:56.474Z,7.42
2019-03-26T01:47:24.240Z,7.45
2019-03-26T01:49:52.309Z,6.95
2019-03-26T01:52:20.480Z,7.67
2019-03-26T01:54:48.555Z,7.03
2019-03-26T01:57:17.240Z,7.92
2019-03-26T01:59:45.003Z,7.90
2019-03-26T02:02:13.175Z,8.15
2019-03-26T02:04:41.047Z,7.35
2019-03-26T02:07:08.812Z,7.87
2019-03-26T02:09:36.570Z,7.08
2019-03-26T02:12:04.331Z,7.30
2019-03-26T02:14:32.202Z,7.67
2019-03-26T02:16:59.961Z,7.28
2019-03-26T02:19:27.730Z,6.95
2019-03-26T02:21:55.593Z,7.22
2019-03-26T02:24:23.368Z,6.80
2019-03-26T02:26:51.121Z,6.85
2019-03-26T02:29:18.888Z,6.78
2019-03-26T02:31:46.645Z,6.50
2019-03-26T02:34:14.422Z,7.00
2019-03-26T02:36:42.384Z,7.90
2019-03-26T02:39:10.256Z,7.35
2019-03-26T02:41:38.317Z,7.30
2019-03-26T02:44:06.185Z,7.78
2019-03-26T02:46:33.945Z,7.47
2019-03-26T02:49:01.719Z,7.15
2019-03-26T02:51:29.680Z,7.60
2019-03-26T02:53:58.265Z,6.83
2019-03-26T02:56:25.717Z,7.85
2019-03-26T02:58:53.487Z,6.97
2019-03-26T03:01:21.655Z,7.30
2019-03-26T03:03:49.602Z,6.37
2019-03-26T03:09:49.056Z,7.67
2019-03-26T03:12:19.781Z,7.92
2019-03-26T03:14:48.169Z,6.97
2019-03-26T03:17:16.031Z,7.40
2019-03-26T03:19:43.796Z,7.60
2019-03-26T03:22:11.741Z,7.17
2019-03-26T03:24:39.520Z,7.75
2019-03-26T03:27:25.926Z,8.40
2019-03-26T03:29:53.694Z,8.00
2019-03-26T03:32:21.558Z,7.70
2019-03-26T03:34:49.321Z,8.55
2019-03-26T03:37:17.082Z,8.33
2019-03-26T03:39:44.844Z,8.38
2019-03-26T03:42:12.609Z,8.83
2019-03-26T03:44:40.584Z,8.73
2019-03-26T03:47:09.156Z,8.78
2019-03-26T03:49:36.409Z,8.95
2019-03-26T03:52:04.172Z,8.45
2019-03-26T03:54:31.836Z,8.68
2019-03-26T03:56:59.600Z,9.88
2019-03-26T03:59:27.467Z,8.70
2019-03-26T04:01:55.950Z,8.40
2019-03-26T04:04:24.120Z,8.45
2019-03-26T04:06:52.090Z,8.48
2019-03-26T04:09:20.066Z,9.53
2019-03-26T04:11:48.230Z,10.98
2019-03-26T04:14:16.325Z,8.90
2019-03-26T04:16:44.372Z,10.43
2019-03-26T04:19:12.455Z,11.53
2019-03-26T04:21:40.412Z,10.28
2019-03-26T04:24:08.483Z,10.25
2019-03-26T04:26:36.449Z,9.80
2019-03-26T04:29:04.326Z,9.30
2019-03-26T04:31:32.290Z,10.63
2019-03-26T04:34:00.255Z,9.20
2019-03-26T04:36:28.228Z,9.65
2019-03-26T04:38:56.290Z,10.05
2019-03-26T04:41:25.806Z,8.80
2019-03-26T04:43:53.768Z,9.40
2019-03-26T04:46:21.731Z,9.73
2019-03-26T04:48:49.708Z,10.03
2019-03-26T04:51:17.673Z,9.83
2019-03-26T04:53:46.258Z,10.48
2019-03-26T04:56:14.231Z,12.25
2019-03-26T04:58:45.057Z,14.38
2019-03-26T05:01:13.331Z,11.80
2019-03-26T05:03:41.509Z,13.22
2019-03-26T05:06:09.472Z,17.75
2019-03-26T05:08:37.543Z,21.93
2019-03-26T05:11:05.516Z,23.52
2019-03-26T05:13:33.686Z,18.20
2019-03-26T05:16:01.551Z,16.30
2019-03-26T05:18:29.527Z,13.32
2019-03-26T05:20:58.412Z,13.68
2019-03-26T05:23:26.385Z,12.50
2019-03-26T05:25:54.455Z,15.32
2019-03-26T05:28:22.521Z,15.93
2019-03-26T05:30:50.493Z,13.88
2019-03-26T05:33:18.359Z,15.00
2019-03-26T05:35:46.433Z,13.22
2019-03-26T05:38:14.403Z,12.80
2019-03-26T05:40:42.267Z,16.15
2019-03-26T05:43:10.231Z,15.50
2019-03-26T05:45:38.102Z,16.65
2019-03-26T05:48:06.070Z,15.72
2019-03-26T05:50:34.136Z,15.08
2019-03-26T05:53:02.520Z,17.15
2019-03-26T05:55:30.487Z,21.00
2019-03-26T05:57:58.763Z,26.60
2019-03-26T06:00:27.551Z,27.10
2019-03-26T06:02:55.519Z,23.35
2019-03-26T06:05:23.385Z,21.17
2019-03-26T06:07:51.451Z,26.30
2019-03-26T06:10:19.418Z,29.05
2019-03-26T06:12:50.180Z,29.55
2019-03-26T06:15:17.206Z,31.20
2019-03-26T06:17:45.172Z,32.28
2019-03-26T06:20:13.143Z,35.52
2019-03-26T06:22:41.212Z,35.35
2019-03-26T06:25:09.281Z,31.95
2019-03-26T06:27:37.146Z,33.13
2019-03-26T06:30:07.878Z,34.53
2019-03-26T06:32:35.951Z,33.38
2019-03-26T06:35:06.276Z,34.88
2019-03-26T06:37:34.140Z,34.18
2019-03-26T06:40:04.779Z,39.45
2019-03-26T06:42:32.840Z,36.42
2019-03-26T06:45:00.713Z,34.55
2019-03-26T06:47:28.677Z,35.52
2019-03-26T06:49:56.647Z,39.33
2019-03-26T06:52:25.129Z,39.08
2019-03-26T06:54:52.887Z,42.10
2019-03-26T06:57:20.861Z,43.42
2019-03-26T06:59:48.825Z,45.85
2019-03-26T07:02:17.312Z,42.00
2019-03-26T07:04:45.173Z,38.17
2019-03-26T07:07:13.447Z,36.55
2019-03-26T07:09:41.417Z,36.60
2019-03-26T07:12:09.386Z,36.05
2019-03-26T07:14:37.457Z,34.05
2019-03-26T07:17:05.938Z,33.92
2019-03-26T07:19:33.807Z,30.92
2019-03-26T07:22:02.285Z,30.37
2019-03-26T07:24:30.051Z,29.40
2019-03-26T07:26:58.019Z,29.20
2019-03-26T07:29:25.981Z,29.35
2019-03-26T07:31:53.954Z,29.82
2019-03-26T07:34:21.920Z,29.35
2019-03-26T07:36:49.889Z,30.92
2019-03-26T07:39:17.827Z,31.55
2019-03-26T07:41:45.829Z,31.57
2019-03-26T07:44:13.720Z,31.65
2019-03-26T07:46:41.768Z,34.15
2019-03-26T07:49:09.736Z,32.42
2019-03-26T07:51:37.700Z,32.75
2019-03-26T07:54:06.289Z,32.73
2019-03-26T07:56:34.352Z,30.62
2019-03-26T07:59:02.448Z,29.18
2019-03-26T08:01:30.802Z,27.50
2019-03-26T08:03:58.673Z,26.60
2019-03-26T08:06:26.541Z,34.03
2019-03-26T08:08:54.611Z,30.12
2019-03-26T08:11:22.493Z,27.70
2019-03-26T08:13:50.581Z,29.30
2019-03-26T08:16:18.421Z,31.68
2019-03-26T08:18:46.386Z,33.35
2019-03-26T08:21:14.247Z,32.65
2019-03-26T08:23:42.215Z,32.93
2019-03-26T08:26:10.187Z,35.30
2019-03-26T08:28:38.150Z,35.17
2019-03-26T08:31:06.122Z,34.45
2019-03-26T08:33:34.086Z,33.90
2019-03-26T08:36:02.263Z,30.25
2019-03-26T08:38:33.413Z,30.27
2019-03-26T08:40:59.737Z,29.63
2019-03-26T08:43:27.819Z,30.50
2019-03-26T08:45:55.776Z,29.80
2019-03-26T08:48:23.749Z,30.40
2019-03-26T08:50:51.711Z,32.25
2019-03-26T08:53:20.497Z,32.05
2019-03-26T08:55:48.158Z,29.67
2019-03-26T08:58:16.130Z,30.65
2019-03-26T09:00:44.620Z,29.60
2019-03-26T09:03:12.681Z,30.27
2019-03-26T09:05:40.564Z,31.90
2019-03-26T09:08:08.515Z,32.30
2019-03-26T09:10:36.582Z,29.90
2019-03-26T09:13:04.656Z,31.77
2019-03-26T09:15:32.730Z,28.47
2019-03-26T09:18:00.721Z,29.60
2019-03-26T09:20:28.666Z,30.10
2019-03-26T09:22:56.733Z,30.20
2019-03-26T09:25:24.707Z,31.45
2019-03-26T09:27:52.681Z,33.20
2019-03-26T09:30:20.645Z,30.92
2019-03-26T09:32:48.512Z,30.82
2019-03-26T09:35:16.483Z,29.92
2019-03-26T09:37:44.445Z,30.92
2019-03-26T09:40:13.643Z,31.80
2019-03-26T09:42:42.530Z,31.75
2019-03-26T09:45:11.011Z,29.80
2019-03-26T09:47:38.984Z,31.33
2019-03-26T09:50:08.953Z,33.45
2019-03-26T09:52:36.863Z,31.62
2019-03-26T09:55:07.494Z,32.20
2019-03-26T09:57:35.974Z,33.23
2019-03-26T10:00:09.274Z,34.60
2019-03-26T10:02:37.544Z,32.15
2019-03-26T10:05:05.819Z,31.40
2019-03-26T10:07:33.583Z,32.40
2019-03-26T10:10:03.192Z,33.63
2019-03-26T10:12:31.053Z,41.75
2019-03-26T10:14:59.029Z,36.73
2019-03-26T10:17:26.792Z,36.30
2019-03-26T10:19:54.786Z,34.80
2019-03-26T10:22:22.729Z,33.18
2019-03-26T10:24:50.797Z,31.77
2019-03-26T10:27:18.813Z,31.40
2019-03-26T10:29:46.731Z,31.73
2019-03-26T10:32:14.814Z,31.55
2019-03-26T10:34:42.882Z,27.67
2019-03-26T10:37:10.856Z,29.40
2019-03-26T10:39:38.912Z,29.75
2019-03-26T10:42:07.170Z,29.85
2019-03-26T10:44:35.574Z,26.80
2019-03-26T10:47:03.541Z,28.70
2019-03-26T10:49:32.636Z,26.10
2019-03-26T10:52:00.500Z,26.05
2019-03-26T10:54:29.798Z,26.37
2019-03-26T10:56:57.563Z,29.07
2019-03-26T10:59:25.529Z,23.90
2019-03-26T11:01:53.906Z,24.50
2019-03-26T11:04:21.983Z,28.52
2019-03-26T11:06:50.839Z,28.00
2019-03-26T11:09:24.267Z,27.05
2019-03-26T11:11:48.548Z,27.52
2019-03-26T11:14:16.414Z,28.38
2019-03-26T11:16:44.282Z,28.38
2019-03-26T11:19:12.252Z,30.65
2019-03-26T11:21:40.215Z,33.90
2019-03-26T11:24:08.185Z,33.30
2019-03-26T11:26:35.997Z,33.63
2019-03-26T11:29:04.431Z,35.98
2019-03-26T11:31:32.815Z,28.47
2019-03-26T11:34:00.776Z,32.03
2019-03-26T11:36:28.861Z,36.30
2019-03-26T11:38:57.148Z,34.23
2019-03-26T11:41:25.706Z,35.33
2019-03-26T11:43:54.153Z,34.03
2019-03-26T11:46:23.599Z,33.55
2019-03-26T11:48:52.950Z,34.78
2019-03-26T11:51:20.964Z,33.55
2019-03-26T11:53:49.866Z,32.00
2019-03-26T11:56:18.023Z,33.18
2019-03-26T11:58:45.994Z,29.60
2019-03-26T12:01:14.263Z,34.05
2019-03-26T12:03:42.547Z,35.80
2019-03-26T12:06:10.515Z,37.60
2019-03-26T12:08:38.686Z,36.80
2019-03-26T12:11:06.659Z,36.13
2019-03-26T12:13:34.729Z,35.58
2019-03-26T12:16:02.701Z,40.10
2019-03-26T12:18:30.670Z,41.28
2019-03-26T12:20:58.733Z,30.97
2019-03-26T12:23:26.706Z,30.72
2019-03-26T12:25:54.772Z,28.98
2019-03-26T12:28:22.739Z,28.10
2019-03-26T12:30:50.607Z,26.55
2019-03-26T12:33:18.676Z,24.60
2019-03-26T12:35:46.650Z,26.40
2019-03-26T12:38:16.256Z,20.17
2019-03-26T12:40:44.031Z,22.22
2019-03-26T12:43:11.985Z,20.95
2019-03-26T12:45:39.957Z,24.55
2019-03-26T12:48:08.023Z,22.95
2019-03-26T12:50:36.094Z,21.68
2019-03-26T12:53:04.375Z,22.10
2019-03-26T12:55:32.342Z,24.02
2019-03-26T12:58:00.310Z,23.25
2019-03-26T13:00:31.555Z,21.97
2019-03-26T13:03:00.242Z,22.55
2019-03-26T13:05:28.001Z,23.25
2019-03-26T13:07:55.968Z,27.20
2019-03-26T13:10:23.943Z,23.38
2019-03-26T13:12:52.111Z,22.70
2019-03-26T13:15:19.983Z,26.35
2019-03-26T13:17:48.152Z,23.12
2019-03-26T13:20:16.122Z,22.32
2019-03-26T13:22:44.193Z,25.55
2019-03-26T13:25:12.260Z,25.37
2019-03-26T13:27:40.437Z,25.00
2019-03-26T13:30:08.613Z,26.12
2019-03-26T13:32:36.687Z,25.85
2019-03-26T13:35:06.187Z,26.82
2019-03-26T13:37:34.054Z,26.37
2019-03-26T13:40:02.669Z,26.80
2019-03-26T13:42:30.397Z,25.68
2019-03-26T13:44:58.464Z,25.30
2019-03-26T13:47:26.535Z,25.95
2019-03-26T13:49:54.503Z,27.60
2019-03-26T13:52:22.886Z,27.50
2019-03-26T13:54:50.860Z,27.80
2019-03-26T13:57:18.818Z,26.50
2019-03-26T13:59:49.020Z,27.85
2019-03-26T14:02:16.909Z,26.00
2019-03-26T14:04:44.591Z,26.27
2019-03-26T14:07:12.542Z,27.77
2019-03-26T14:09:40.711Z,27.00
2019-03-26T14:12:08.578Z,27.07
2019-03-26T14:14:36.549Z,27.60
2019-03-26T14:17:05.734Z,26.68
2019-03-26T14:19:33.715Z,28.20
2019-03-26T14:22:01.687Z,29.23
2019-03-26T14:24:29.757Z,27.05
2019-03-26T14:26:57.726Z,29.20
2019-03-26T14:29:26.308Z,28.35
2019-03-26T14:31:54.270Z,29.20
2019-03-26T14:34:22.250Z,30.97
2019-03-26T14:36:50.215Z,32.15
2019-03-26T14:39:18.488Z,31.65
2019-03-26T14:41:46.456Z,31.90
2019-03-26T14:44:14.421Z,33.20
2019-03-26T14:46:42.288Z,26.62
2019-03-26T14:49:10.257Z,27.82
2019-03-26T14:51:38.227Z,31.85
2019-03-26T14:54:06.704Z,31.62
2019-03-26T14:56:34.676Z,31.70
2019-03-26T14:59:02.645Z,27.80
2019-03-26T15:01:31.032Z,28.27
2019-03-26T15:03:58.886Z,29.55
2019-03-26T15:06:26.856Z,29.30
2019-03-26T15:08:54.828Z,29.60
2019-03-26T15:11:22.801Z,30.48
2019-03-26T15:13:50.865Z,29.82
2019-03-26T15:16:18.839Z,29.00
2019-03-26T15:18:47.004Z,28.00
2019-03-26T15:21:15.079Z,28.60
2019-03-26T15:23:43.146Z,29.70
2019-03-26T15:26:11.219Z,29.25
2019-03-26T15:28:40.010Z,29.02
2019-03-26T15:31:07.977Z,29.65
2019-03-26T15:33:35.948Z,31.05
2019-03-26T15:36:04.115Z,31.55
2019-03-26T15:38:32.086Z,33.40
2019-03-26T15:41:00.051Z,32.58
2019-03-26T15:43:28.029Z,36.10
2019-03-26T15:45:56.092Z,34.73
2019-03-26T15:48:23.957Z,32.10
2019-03-26T15:50:52.138Z,30.68
2019-03-26T15:53:20.619Z,24.65
2019-03-26T15:55:48.381Z,24.00
2019-03-26T15:58:16.249Z,22.32
2019-03-26T16:00:44.624Z,20.70
2019-03-26T16:03:12.388Z,21.82
2019-03-26T16:05:40.257Z,20.55
2019-03-26T16:08:08.229Z,22.20
2019-03-26T16:10:36.101Z,23.77
2019-03-26T16:13:04.259Z,24.30
2019-03-26T16:15:43.507Z,24.43
2019-03-26T16:18:02.864Z,24.30
2019-03-26T16:20:30.933Z,25.62
2019-03-26T16:22:59.009Z,28.07
2019-03-26T16:25:27.077Z,26.75
2019-03-26T16:27:55.140Z,25.25
2019-03-26T16:30:23.225Z,25.48
2019-03-26T16:32:51.085Z,25.30
2019-03-26T16:35:19.049Z,26.07
2019-03-26T16:37:47.016Z,27.00
2019-03-26T16:40:15.091Z,27.45
2019-03-26T16:42:42.960Z,28.40
2019-03-26T16:45:11.028Z,27.02
2019-03-26T16:47:38.994Z,28.32
2019-03-26T16:50:07.992Z,27.98
2019-03-26T16:52:36.370Z,28.02
2019-03-26T16:55:05.678Z,27.70
2019-03-26T16:57:33.533Z,25.32
2019-03-26T17:00:01.815Z,26.95
2019-03-26T17:02:30.398Z,27.85
2019-03-26T17:04:57.948Z,29.05
2019-03-26T17:07:26.018Z,27.65
2019-03-26T17:09:53.986Z,26.52
2019-03-26T17:12:22.073Z,25.40
2019-03-26T17:14:50.743Z,27.02
2019-03-26T17:17:18.718Z,33.35
2019-03-26T17:19:46.696Z,25.90
2019-03-26T17:22:14.651Z,26.85
2019-03-26T17:24:42.927Z,27.95
2019-03-26T17:27:11.021Z,27.13
2019-03-26T17:29:39.089Z,27.48
2019-03-26T17:32:07.348Z,28.15
2019-03-26T17:34:35.333Z,28.87
2019-03-26T17:37:03.286Z,28.87
2019-03-26T17:39:31.781Z,29.75
2019-03-26T17:42:00.032Z,30.02
2019-03-26T17:44:28.121Z,29.23
2019-03-26T17:46:57.309Z,33.95
2019-03-26T17:49:24.872Z,32.88
2019-03-26T17:51:53.659Z,29.40
2019-03-26T17:54:22.029Z,30.10
2019-03-26T17:56:49.999Z,30.65
2019-03-26T17:59:18.064Z,28.10
2019-03-26T18:01:46.460Z,29.27
2019-03-26T18:04:14.210Z,28.35
2019-03-26T18:06:42.286Z,29.12
2019-03-26T18:09:10.260Z,28.07
2019-03-26T18:11:38.218Z,28.38
2019-03-26T18:14:06.196Z,29.75
2019-03-26T18:16:34.371Z,32.42
2019-03-26T18:19:02.734Z,33.55
2019-03-26T18:21:30.712Z,32.00
2019-03-26T18:23:58.778Z,31.73
2019-03-26T18:26:26.858Z,37.53
2019-03-26T18:28:55.570Z,33.05
2019-03-26T18:31:23.708Z,34.55
2019-03-26T18:33:52.208Z,32.25
2019-03-26T18:36:20.160Z,34.35
2019-03-26T18:38:48.124Z,36.68
2019-03-26T18:41:16.207Z,38.25
2019-03-26T18:43:44.176Z,37.38
2019-03-26T18:46:12.134Z,37.28
2019-03-26T18:48:41.454Z,36.23
2019-03-26T18:51:09.308Z,34.25
2019-03-26T18:53:37.883Z,30.37
2019-03-26T18:56:05.655Z,29.42
2019-03-26T18:58:33.611Z,29.75
2019-03-26T19:01:02.301Z,26.93
2019-03-26T19:03:30.481Z,28.23
2019-03-26T19:05:58.539Z,26.15
2019-03-26T19:08:26.725Z,26.52
2019-03-26T19:10:54.584Z,26.42
2019-03-26T19:13:22.655Z,25.27
2019-03-26T19:15:50.628Z,24.40
2019-03-26T19:18:18.704Z,26.85
2019-03-26T19:21:01.077Z,27.87
2019-03-26T19:23:17.291Z,27.57
2019-03-26T19:25:46.593Z,28.32
2019-03-26T19:28:14.460Z,25.27
2019-03-26T19:30:42.432Z,25.82
2019-03-26T19:33:10.505Z,26.30
2019-03-26T19:35:39.552Z,25.72
2019-03-26T19:38:07.874Z,25.17
2019-03-26T19:40:35.939Z,27.42
2019-03-26T19:43:10.705Z,26.50
2019-03-26T19:45:34.850Z,25.35
2019-03-26T19:48:02.915Z,25.97
2019-03-26T19:50:31.226Z,25.20
2019-03-26T19:52:59.777Z,27.10
2019-03-26T19:55:27.655Z,23.62
2019-03-26T19:57:56.134Z,23.85
2019-03-26T20:00:26.787Z,24.40
2019-03-26T20:02:54.104Z,26.00
2019-03-26T20:05:22.281Z,24.20
2019-03-26T20:07:50.348Z,25.35
2019-03-26T20:10:18.478Z,22.40
2019-03-26T20:12:49.056Z,24.75
2019-03-26T20:15:17.126Z,22.37
2019-03-26T20:17:45.106Z,23.18
2019-03-26T20:20:13.068Z,23.27
2019-03-26T20:22:41.043Z,21.48
2019-03-26T20:25:09.513Z,22.73
2019-03-26T20:27:37.477Z,24.05
2019-03-26T20:30:06.881Z,23.45
2019-03-26T20:32:34.645Z,23.45
2019-03-26T20:35:05.862Z,23.92
2019-03-26T20:37:33.974Z,22.70
2019-03-26T20:40:03.053Z,22.48
2019-03-26T20:42:31.025Z,22.30
2019-03-26T20:44:59.093Z,24.23
2019-03-26T20:47:27.175Z,24.57
2019-03-26T20:49:55.546Z,25.70
2019-03-26T20:52:23.996Z,26.93
2019-03-26T20:54:51.789Z,26.25
2019-03-26T20:57:19.761Z,26.23
2019-03-26T20:59:47.722Z,27.87
2019-03-26T21:02:16.005Z,29.80
2019-03-26T21:04:44.075Z,29.77
2019-03-26T21:07:12.161Z,28.42
2019-03-26T21:09:40.210Z,28.17
2019-03-26T21:12:08.514Z,25.30
2019-03-26T21:14:36.563Z,26.40
2019-03-26T21:17:04.322Z,28.75
2019-03-26T21:19:33.217Z,27.40
2019-03-26T21:22:01.190Z,28.10
2019-03-26T21:24:29.257Z,29.98
2019-03-26T21:26:57.426Z,29.07
2019-03-26T21:29:25.395Z,29.52
2019-03-26T21:34:52.272Z,28.62
2019-03-26T21:37:20.430Z,29.48
2019-03-26T21:39:48.514Z,29.82
2019-03-26T21:42:16.473Z,27.77
2019-03-26T21:44:44.441Z,28.77
2019-03-26T21:47:13.652Z,29.20
2019-03-26T21:49:41.717Z,29.10
2019-03-26T21:52:09.674Z,28.42
2019-03-26T21:54:37.951Z,29.07
2019-03-26T21:57:05.928Z,30.85
2019-03-26T21:59:33.892Z,29.07
2019-03-26T22:02:02.372Z,29.87
2019-03-26T22:04:31.010Z,30.02
2019-03-26T22:06:59.030Z,32.42
2019-03-26T22:09:26.997Z,30.95
2019-03-26T22:11:54.962Z,30.05
2019-03-26T22:14:22.932Z,46.95
2019-03-26T22:16:50.898Z,31.65
2019-03-26T22:19:28.304Z,32.58
2019-03-26T22:21:48.684Z,31.02
2019-03-26T22:24:17.294Z,28.92
2019-03-26T22:26:45.334Z,28.02
2019-03-26T22:29:13.197Z,28.25
2019-03-26T22:31:41.268Z,24.92
2019-03-26T22:34:09.240Z,24.63
2019-03-26T22:36:37.230Z,24.45
2019-03-26T22:39:05.790Z,23.02
2019-03-26T22:41:33.550Z,24.35
2019-03-26T22:44:01.623Z,24.40
2019-03-26T22:46:29.541Z,23.42
2019-03-26T22:49:00.426Z,24.18
2019-03-26T22:51:28.498Z,24.95
2019-03-26T22:53:56.924Z,24.47
2019-03-26T22:56:24.542Z,25.70
2019-03-26T22:58:52.502Z,22.80
2019-03-26T23:01:21.188Z,23.02
2019-03-26T23:03:49.777Z,23.18
2019-03-26T23:06:17.759Z,23.67
2019-03-26T23:08:45.718Z,21.77
2019-03-26T23:11:14.292Z,22.30
2019-03-26T23:13:42.463Z,19.75
2019-03-26T23:16:10.125Z,21.37
2019-03-26T23:18:38.202Z,22.37
2019-03-26T23:21:06.187Z,22.37
2019-03-26T23:23:34.136Z,21.60
2019-03-26T23:26:02.517Z,21.15
2019-03-26T23:28:30.288Z,22.67
2019-03-26T23:30:58.349Z,21.33
2019-03-26T23:33:26.240Z,20.97
2019-03-26T23:35:54.390Z,21.82
2019-03-26T23:38:22.459Z,21.10
2019-03-26T23:40:50.429Z,20.62
2019-03-26T23:43:18.297Z,19.48
2019-03-26T23:45:46.365Z,20.95
2019-03-26T23:48:14.335Z,21.30
2019-03-26T23:50:42.506Z,22.17
2019-03-26T23:53:10.784Z,22.60
2019-03-26T23:55:38.653Z,23.10
2019-03-26T23:58:06.617Z,23.77
